Plano, Illinois
Current Conditions -  °F | °C
As of 10:52 AM on Saturday 25 Oct 2014 (Local Time) from KARR Reporting Station
Clear Clear  
Wind Chill: 66°   Ceiling: Unl
Heat Index: 66°   Visibility: 7mi
Dew Point: 49°   Wind: 13mph
Humidity: 54%   Direction: 310°NW
Pressure: 29.98"   Gusts: NA
Location:  41.66°N, 88.54°W
Report Text: KARR 251552Z 31011KT 7SM CLR 19/09 A2998 RMK AO2 SLP151 T01890094
Loading
Personal Weather Stations






























Interactive Weather Map
Tropical Storm Tracking
New forecast layout! Learn more

10-Day Weather Forecast

Advertisements
Track Severe Weather on mobile